sensor_id;sensor_type;location;lat;lon;timestamp;P1;durP1;ratioP1;P2;durP2;ratioP2
26157;SDS011;67284;44.782;10.282;2023-02-13T00:00:13;99.97;;;53.03;;
26157;SDS011;67284;44.782;10.282;2023-02-13T00:05:08;99.53;;;52.60;;
26157;SDS011;67284;44.782;10.282;2023-02-13T00:10:00;92.93;;;50.83;;
26157;SDS011;67284;44.782;10.282;2023-02-13T00:14:52;98.13;;;53.78;;
26157;SDS011;67284;44.782;10.282;2023-02-13T00:19:44;95.13;;;53.92;;
26157;SDS011;67284;44.782;10.282;2023-02-13T00:24:36;103.05;;;54.47;;
26157;SDS011;67284;44.782;10.282;2023-02-13T00:29:28;92.47;;;53.17;;
26157;SDS011;67284;44.782;10.282;2023-02-13T00:34:19;97.85;;;53.35;;
26157;SDS011;67284;44.782;10.282;2023-02-13T00:39:11;93.38;;;53.47;;
26157;SDS011;67284;44.782;10.282;2023-02-13T00:44:03;98.43;;;55.75;;
26157;SDS011;67284;44.782;10.282;2023-02-13T00:48:55;92.40;;;53.03;;
26157;SDS011;67284;44.782;10.282;2023-02-13T00:53:47;96.22;;;52.85;;
26157;SDS011;67284;44.782;10.282;2023-02-13T00:58:39;93.10;;;51.80;;
26157;SDS011;67284;44.782;10.282;2023-02-13T01:03:31;98.65;;;55.28;;
26157;SDS011;67284;44.782;10.282;2023-02-13T01:08:23;107.35;;;56.45;;
26157;SDS011;67284;44.782;10.282;2023-02-13T01:13:15;103.45;;;55.40;;
26157;SDS011;67284;44.782;10.282;2023-02-13T01:18:11;96.63;;;55.97;;
26157;SDS011;67284;44.782;10.282;2023-02-13T01:23:05;99.43;;;53.55;;
26157;SDS011;67284;44.782;10.282;2023-02-13T01:27:56;104.88;;;58.20;;
26157;SDS011;67284;44.782;10.282;2023-02-13T01:32:48;97.40;;;55.13;;
26157;SDS011;67284;44.782;10.282;2023-02-13T01:37:40;99.57;;;55.45;;
26157;SDS011;67284;44.782;10.282;2023-02-13T01:42:33;103.38;;;56.00;;
26157;SDS011;67284;44.782;10.282;2023-02-13T01:47:27;108.20;;;56.83;;
26157;SDS011;67284;44.782;10.282;2023-02-13T01:52:25;102.57;;;57.08;;
26157;SDS011;67284;44.782;10.282;2023-02-13T01:57:17;102.53;;;57.13;;
26157;SDS011;67284;44.782;10.282;2023-02-13T02:02:13;106.95;;;55.42;;
26157;SDS011;67284;44.782;10.282;2023-02-13T02:07:07;98.43;;;54.17;;
26157;SDS011;67284;44.782;10.282;2023-02-13T02:16:54;100.60;;;54.95;;
26157;SDS011;67284;44.782;10.282;2023-02-13T02:27:32;99.88;;;56.13;;
26157;SDS011;67284;44.782;10.282;2023-02-13T02:58:38;89.25;;;45.10;;
26157;SDS011;67284;44.782;10.282;2023-02-13T03:04:01;80.07;;;46.38;;
26157;SDS011;67284;44.782;10.282;2023-02-13T03:09:25;80.13;;;45.60;;
26157;SDS011;67284;44.782;10.282;2023-02-13T03:14:39;73.35;;;40.03;;
26157;SDS011;67284;44.782;10.282;2023-02-13T03:25:18;67.75;;;38.20;;
26157;SDS011;67284;44.782;10.282;2023-02-13T03:30:23;72.03;;;37.90;;
26157;SDS011;67284;44.782;10.282;2023-02-13T03:41:10;59.03;;;34.05;;
26157;SDS011;67284;44.782;10.282;2023-02-13T03:46:08;58.33;;;32.38;;
26157;SDS011;67284;44.782;10.282;2023-02-13T03:51:01;58.95;;;34.08;;
26157;SDS011;67284;44.782;10.282;2023-02-13T03:55:55;58.08;;;31.48;;
26157;SDS011;67284;44.782;10.282;2023-02-13T04:01:07;60.03;;;32.17;;
26157;SDS011;67284;44.782;10.282;2023-02-13T04:06:07;55.13;;;30.65;;
26157;SDS011;67284;44.782;10.282;2023-02-13T04:11:13;59.45;;;31.42;;
26157;SDS011;67284;44.782;10.282;2023-02-13T04:16:14;48.13;;;28.80;;
26157;SDS011;67284;44.782;10.282;2023-02-13T04:21:08;51.80;;;30.23;;
26157;SDS011;67284;44.782;10.282;2023-02-13T04:26:01;55.28;;;30.38;;
26157;SDS011;67284;44.782;10.282;2023-02-13T04:30:55;50.53;;;29.40;;
26157;SDS011;67284;44.782;10.282;2023-02-13T04:35:48;52.40;;;29.05;;
26157;SDS011;67284;44.782;10.282;2023-02-13T04:40:40;50.90;;;29.40;;
26157;SDS011;67284;44.782;10.282;2023-02-13T04:45:32;47.50;;;28.65;;
26157;SDS011;67284;44.782;10.282;2023-02-13T04:50:24;49.95;;;28.23;;
26157;SDS011;67284;44.782;10.282;2023-02-13T04:55:16;50.08;;;29.35;;
26157;SDS011;67284;44.782;10.282;2023-02-13T05:00:08;49.97;;;27.90;;
26157;SDS011;67284;44.782;10.282;2023-02-13T05:05:01;54.47;;;28.13;;
26157;SDS011;67284;44.782;10.282;2023-02-13T05:09:53;50.65;;;27.40;;
26157;SDS011;67284;44.782;10.282;2023-02-13T05:14:44;50.95;;;27.75;;
26157;SDS011;67284;44.782;10.282;2023-02-13T05:19:36;47.92;;;28.83;;
26157;SDS011;67284;44.782;10.282;2023-02-13T05:24:28;53.80;;;28.73;;
26157;SDS011;67284;44.782;10.282;2023-02-13T05:29:20;54.28;;;31.48;;
26157;SDS011;67284;44.782;10.282;2023-02-13T05:34:15;43.55;;;25.60;;
26157;SDS011;67284;44.782;10.282;2023-02-13T05:39:07;52.97;;;27.92;;
26157;SDS011;67284;44.782;10.282;2023-02-13T05:43:59;48.50;;;28.73;;
26157;SDS011;67284;44.782;10.282;2023-02-13T05:48:50;52.38;;;28.77;;
26157;SDS011;67284;44.782;10.282;2023-02-13T05:53:43;53.03;;;27.27;;
26157;SDS011;67284;44.782;10.282;2023-02-13T05:58:34;45.95;;;26.98;;
26157;SDS011;67284;44.782;10.282;2023-02-13T06:03:29;51.97;;;28.52;;
26157;SDS011;67284;44.782;10.282;2023-02-13T06:08:22;55.22;;;29.45;;
26157;SDS011;67284;44.782;10.282;2023-02-13T06:13:14;46.58;;;26.88;;
26157;SDS011;67284;44.782;10.282;2023-02-13T06:18:07;44.58;;;25.85;;
26157;SDS011;67284;44.782;10.282;2023-02-13T06:22:59;45.33;;;25.08;;
26157;SDS011;67284;44.782;10.282;2023-02-13T06:27:51;49.50;;;26.88;;
26157;SDS011;67284;44.782;10.282;2023-02-13T06:32:43;47.22;;;25.00;;
26157;SDS011;67284;44.782;10.282;2023-02-13T06:37:37;51.70;;;26.52;;
26157;SDS011;67284;44.782;10.282;2023-02-13T06:42:29;47.05;;;26.33;;
26157;SDS011;67284;44.782;10.282;2023-02-13T06:47:21;49.55;;;27.27;;
26157;SDS011;67284;44.782;10.282;2023-02-13T06:52:13;44.97;;;25.23;;
26157;SDS011;67284;44.782;10.282;2023-02-13T06:57:05;50.80;;;27.60;;
26157;SDS011;67284;44.782;10.282;2023-02-13T07:01:57;42.85;;;25.92;;
26157;SDS011;67284;44.782;10.282;2023-02-13T07:06:48;45.65;;;24.50;;
26157;SDS011;67284;44.782;10.282;2023-02-13T07:11:40;45.72;;;25.33;;
26157;SDS011;67284;44.782;10.282;2023-02-13T07:16:32;48.55;;;26.80;;
26157;SDS011;67284;44.782;10.282;2023-02-13T07:21:24;49.53;;;28.13;;
26157;SDS011;67284;44.782;10.282;2023-02-13T07:26:16;49.58;;;27.85;;
26157;SDS011;67284;44.782;10.282;2023-02-13T07:31:07;48.70;;;26.73;;
26157;SDS011;67284;44.782;10.282;2023-02-13T07:36:00;49.80;;;28.45;;
26157;SDS011;67284;44.782;10.282;2023-02-13T07:40:54;56.05;;;29.40;;
26157;SDS011;67284;44.782;10.282;2023-02-13T07:45:48;53.42;;;30.05;;
26157;SDS011;67284;44.782;10.282;2023-02-13T07:50:40;56.80;;;31.10;;
26157;SDS011;67284;44.782;10.282;2023-02-13T07:55:32;60.45;;;31.35;;
26157;SDS011;67284;44.782;10.282;2023-02-13T08:00:24;54.45;;;32.67;;
26157;SDS011;67284;44.782;10.282;2023-02-13T08:05:15;53.45;;;31.85;;
26157;SDS011;67284;44.782;10.282;2023-02-13T08:10:08;56.20;;;32.97;;
26157;SDS011;67284;44.782;10.282;2023-02-13T08:15:20;66.97;;;35.38;;
26157;SDS011;67284;44.782;10.282;2023-02-13T08:20:12;60.90;;;35.38;;
26157;SDS011;67284;44.782;10.282;2023-02-13T08:25:04;69.28;;;38.75;;
26157;SDS011;67284;44.782;10.282;2023-02-13T08:29:57;80.88;;;43.58;;
26157;SDS011;67284;44.782;10.282;2023-02-13T08:34:49;81.70;;;45.97;;
26157;SDS011;67284;44.782;10.282;2023-02-13T08:39:41;92.95;;;49.72;;
26157;SDS011;67284;44.782;10.282;2023-02-13T08:44:33;95.50;;;51.33;;
26157;SDS011;67284;44.782;10.282;2023-02-13T08:49:25;89.07;;;48.58;;
26157;SDS011;67284;44.782;10.282;2023-02-13T08:54:17;94.75;;;53.60;;
26157;SDS011;67284;44.782;10.282;2023-02-13T08:59:09;101.75;;;53.58;;
26157;SDS011;67284;44.782;10.282;2023-02-13T09:04:00;110.80;;;58.97;;
26157;SDS011;67284;44.782;10.282;2023-02-13T09:08:53;115.03;;;59.17;;
26157;SDS011;67284;44.782;10.282;2023-02-13T09:13:45;127.10;;;68.22;;
26157;SDS011;67284;44.782;10.282;2023-02-13T09:18:38;117.88;;;59.55;;
26157;SDS011;67284;44.782;10.282;2023-02-13T09:23:31;124.72;;;63.60;;
26157;SDS011;67284;44.782;10.282;2023-02-13T09:28:24;118.57;;;63.50;;
26157;SDS011;67284;44.782;10.282;2023-02-13T09:33:16;118.22;;;64.88;;
26157;SDS011;67284;44.782;10.282;2023-02-13T09:38:08;124.93;;;64.07;;
26157;SDS011;67284;44.782;10.282;2023-02-13T09:43:09;120.88;;;67.60;;
26157;SDS011;67284;44.782;10.282;2023-02-13T09:48:05;123.38;;;65.90;;
26157;SDS011;67284;44.782;10.282;2023-02-13T09:52:58;106.38;;;58.13;;
26157;SDS011;67284;44.782;10.282;2023-02-13T10:18:11;114.18;;;63.08;;
26157;SDS011;67284;44.782;10.282;2023-02-13T10:23:26;122.40;;;66.50;;
26157;SDS011;67284;44.782;10.282;2023-02-13T10:28:41;122.63;;;64.07;;
26157;SDS011;67284;44.782;10.282;2023-02-13T10:33:48;115.57;;;64.63;;
26157;SDS011;67284;44.782;10.282;2023-02-13T10:38:43;115.28;;;64.60;;
26157;SDS011;67284;44.782;10.282;2023-02-13T10:58:53;109.88;;;59.00;;
26157;SDS011;67284;44.782;10.282;2023-02-13T11:04:28;119.15;;;62.88;;
26157;SDS011;67284;44.782;10.282;2023-02-13T11:09:13;108.37;;;59.27;;
26157;SDS011;67284;44.782;10.282;2023-02-13T11:19:02;111.05;;;58.92;;
26157;SDS011;67284;44.782;10.282;2023-02-13T11:23:53;111.03;;;60.40;;
26157;SDS011;67284;44.782;10.282;2023-02-13T11:28:49;96.15;;;55.45;;
26157;SDS011;67284;44.782;10.282;2023-02-13T11:33:44;116.15;;;61.92;;
26157;SDS011;67284;44.782;10.282;2023-02-13T11:38:36;110.22;;;60.30;;
26157;SDS011;67284;44.782;10.282;2023-02-13T11:43:29;110.88;;;57.55;;
26157;SDS011;67284;44.782;10.282;2023-02-13T11:48:25;107.05;;;58.15;;
26157;SDS011;67284;44.782;10.282;2023-02-13T11:53:18;103.43;;;55.83;;
26157;SDS011;67284;44.782;10.282;2023-02-13T12:08:12;103.38;;;54.55;;
26157;SDS011;67284;44.782;10.282;2023-02-13T12:13:14;98.20;;;53.63;;
26157;SDS011;67284;44.782;10.282;2023-02-13T12:18:22;92.22;;;52.10;;
26157;SDS011;67284;44.782;10.282;2023-02-13T12:23:27;93.40;;;53.45;;
26157;SDS011;67284;44.782;10.282;2023-02-13T12:28:39;99.63;;;54.53;;
26157;SDS011;67284;44.782;10.282;2023-02-13T12:49:19;87.78;;;49.47;;
26157;SDS011;67284;44.782;10.282;2023-02-13T12:54:38;93.10;;;49.72;;
26157;SDS011;67284;44.782;10.282;2023-02-13T13:04:44;87.30;;;48.85;;
26157;SDS011;67284;44.782;10.282;2023-02-13T13:30:16;83.68;;;47.53;;
26157;SDS011;67284;44.782;10.282;2023-02-13T13:35:19;79.83;;;46.60;;
26157;SDS011;67284;44.782;10.282;2023-02-13T13:40:22;70.65;;;39.13;;
26157;SDS011;67284;44.782;10.282;2023-02-13T13:45:25;69.68;;;39.45;;
26157;SDS011;67284;44.782;10.282;2023-02-13T13:50:24;71.13;;;38.35;;
26157;SDS011;67284;44.782;10.282;2023-02-13T14:06:00;73.93;;;40.53;;
26157;SDS011;67284;44.782;10.282;2023-02-13T14:10:58;78.68;;;39.13;;
26157;SDS011;67284;44.782;10.282;2023-02-13T14:15:52;72.18;;;38.70;;
26157;SDS011;67284;44.782;10.282;2023-02-13T14:25:44;67.53;;;36.53;;
26157;SDS011;67284;44.782;10.282;2023-02-13T14:30:38;65.53;;;37.33;;
26157;SDS011;67284;44.782;10.282;2023-02-13T14:35:31;69.88;;;38.70;;
26157;SDS011;67284;44.782;10.282;2023-02-13T14:40:30;63.58;;;37.67;;
26157;SDS011;67284;44.782;10.282;2023-02-13T14:45:35;66.97;;;36.92;;
26157;SDS011;67284;44.782;10.282;2023-02-13T14:50:51;74.30;;;40.92;;
26157;SDS011;67284;44.782;10.282;2023-02-13T14:55:49;61.75;;;36.47;;
26157;SDS011;67284;44.782;10.282;2023-02-13T15:00:51;65.85;;;35.60;;
26157;SDS011;67284;44.782;10.282;2023-02-13T15:05:48;64.25;;;34.20;;
26157;SDS011;67284;44.782;10.282;2023-02-13T15:10:43;63.58;;;35.03;;
26157;SDS011;67284;44.782;10.282;2023-02-13T15:15:40;60.88;;;35.80;;
26157;SDS011;67284;44.782;10.282;2023-02-13T15:20:33;60.58;;;34.78;;
26157;SDS011;67284;44.782;10.282;2023-02-13T15:25:34;59.05;;;35.30;;
26157;SDS011;67284;44.782;10.282;2023-02-13T15:30:32;54.25;;;32.10;;
26157;SDS011;67284;44.782;10.282;2023-02-13T15:45:18;59.38;;;31.02;;
26157;SDS011;67284;44.782;10.282;2023-02-13T15:50:15;54.70;;;30.55;;
26157;SDS011;67284;44.782;10.282;2023-02-13T15:55:25;57.65;;;34.17;;
26157;SDS011;67284;44.782;10.282;2023-02-13T16:00:26;49.25;;;28.60;;
26157;SDS011;67284;44.782;10.282;2023-02-13T16:05:21;57.97;;;32.08;;
26157;SDS011;67284;44.782;10.282;2023-02-13T16:15:23;55.92;;;29.88;;
26157;SDS011;67284;44.782;10.282;2023-02-13T16:20:20;51.45;;;30.05;;
26157;SDS011;67284;44.782;10.282;2023-02-13T16:35:28;48.35;;;28.20;;
26157;SDS011;67284;44.782;10.282;2023-02-13T16:40:32;46.97;;;26.75;;
26157;SDS011;67284;44.782;10.282;2023-02-13T16:45:25;46.65;;;27.85;;
26157;SDS011;67284;44.782;10.282;2023-02-13T16:50:16;49.75;;;29.30;;
26157;SDS011;67284;44.782;10.282;2023-02-13T16:55:13;44.40;;;26.48;;
26157;SDS011;67284;44.782;10.282;2023-02-13T17:00:15;47.35;;;28.35;;
26157;SDS011;67284;44.782;10.282;2023-02-13T17:05:21;52.47;;;28.25;;
26157;SDS011;67284;44.782;10.282;2023-02-13T17:10:19;50.42;;;29.45;;
26157;SDS011;67284;44.782;10.282;2023-02-13T17:15:19;50.38;;;29.30;;
26157;SDS011;67284;44.782;10.282;2023-02-13T17:20:17;57.50;;;34.15;;
26157;SDS011;67284;44.782;10.282;2023-02-13T17:25:15;70.07;;;37.90;;
26157;SDS011;67284;44.782;10.282;2023-02-13T17:30:16;66.05;;;34.08;;
26157;SDS011;67284;44.782;10.282;2023-02-13T17:35:13;66.05;;;36.28;;
26157;SDS011;67284;44.782;10.282;2023-02-13T17:40:07;63.80;;;35.15;;
26157;SDS011;67284;44.782;10.282;2023-02-13T17:44:59;69.53;;;36.63;;
26157;SDS011;67284;44.782;10.282;2023-02-13T17:49:51;71.45;;;36.22;;
26157;SDS011;67284;44.782;10.282;2023-02-13T17:54:55;62.97;;;35.72;;
26157;SDS011;67284;44.782;10.282;2023-02-13T17:59:47;67.20;;;37.38;;
26157;SDS011;67284;44.782;10.282;2023-02-13T18:04:39;67.35;;;34.67;;
26157;SDS011;67284;44.782;10.282;2023-02-13T18:09:31;71.70;;;38.55;;
26157;SDS011;67284;44.782;10.282;2023-02-13T18:14:23;64.18;;;36.17;;
26157;SDS011;67284;44.782;10.282;2023-02-13T18:19:15;72.85;;;39.47;;
26157;SDS011;67284;44.782;10.282;2023-02-13T18:24:06;77.97;;;41.95;;
26157;SDS011;67284;44.782;10.282;2023-02-13T18:28:59;74.72;;;42.45;;
26157;SDS011;67284;44.782;10.282;2023-02-13T18:33:50;89.90;;;49.15;;
26157;SDS011;67284;44.782;10.282;2023-02-13T18:38:42;72.68;;;40.20;;
26157;SDS011;67284;44.782;10.282;2023-02-13T18:43:34;74.63;;;41.42;;
26157;SDS011;67284;44.782;10.282;2023-02-13T18:48:26;82.13;;;46.10;;
26157;SDS011;67284;44.782;10.282;2023-02-13T18:53:18;95.03;;;48.35;;
26157;SDS011;67284;44.782;10.282;2023-02-13T18:58:10;97.00;;;49.70;;
26157;SDS011;67284;44.782;10.282;2023-02-13T19:03:02;86.43;;;47.70;;
26157;SDS011;67284;44.782;10.282;2023-02-13T19:07:53;88.00;;;47.90;;
26157;SDS011;67284;44.782;10.282;2023-02-13T19:12:46;81.35;;;45.53;;
26157;SDS011;67284;44.782;10.282;2023-02-13T19:17:38;89.18;;;47.45;;
26157;SDS011;67284;44.782;10.282;2023-02-13T19:22:30;91.32;;;48.45;;
26157;SDS011;67284;44.782;10.282;2023-02-13T19:27:22;78.82;;;45.13;;
26157;SDS011;67284;44.782;10.282;2023-02-13T19:32:14;92.13;;;50.47;;
26157;SDS011;67284;44.782;10.282;2023-02-13T19:37:06;97.40;;;49.38;;
26157;SDS011;67284;44.782;10.282;2023-02-13T19:41:58;93.25;;;47.97;;
26157;SDS011;67284;44.782;10.282;2023-02-13T19:46:50;90.47;;;49.33;;
26157;SDS011;67284;44.782;10.282;2023-02-13T19:51:42;86.75;;;49.70;;
26157;SDS011;67284;44.782;10.282;2023-02-13T19:56:37;91.82;;;51.28;;
26157;SDS011;67284;44.782;10.282;2023-02-13T20:01:29;90.20;;;51.42;;
26157;SDS011;67284;44.782;10.282;2023-02-13T20:06:26;97.38;;;49.35;;
26157;SDS011;67284;44.782;10.282;2023-02-13T20:11:21;95.18;;;50.13;;
26157;SDS011;67284;44.782;10.282;2023-02-13T20:16:14;97.40;;;52.10;;
26157;SDS011;67284;44.782;10.282;2023-02-13T20:21:08;90.38;;;50.83;;
26157;SDS011;67284;44.782;10.282;2023-02-13T20:26:01;90.05;;;49.20;;
26157;SDS011;67284;44.782;10.282;2023-02-13T20:30:58;85.18;;;47.95;;
26157;SDS011;67284;44.782;10.282;2023-02-13T20:35:51;88.15;;;49.45;;
26157;SDS011;67284;44.782;10.282;2023-02-13T20:40:43;95.30;;;50.97;;
26157;SDS011;67284;44.782;10.282;2023-02-13T20:45:35;86.90;;;49.25;;
26157;SDS011;67284;44.782;10.282;2023-02-13T20:50:26;89.40;;;49.90;;
26157;SDS011;67284;44.782;10.282;2023-02-13T20:55:18;88.93;;;48.90;;
26157;SDS011;67284;44.782;10.282;2023-02-13T21:00:10;90.78;;;49.95;;
26157;SDS011;67284;44.782;10.282;2023-02-13T21:05:03;86.18;;;48.05;;
26157;SDS011;67284;44.782;10.282;2023-02-13T21:09:55;92.38;;;46.60;;
26157;SDS011;67284;44.782;10.282;2023-02-13T21:14:47;85.53;;;49.10;;
26157;SDS011;67284;44.782;10.282;2023-02-13T21:19:39;84.97;;;47.47;;
26157;SDS011;67284;44.782;10.282;2023-02-13T21:24:31;91.65;;;48.95;;
26157;SDS011;67284;44.782;10.282;2023-02-13T21:29:23;86.13;;;47.55;;
26157;SDS011;67284;44.782;10.282;2023-02-13T21:34:16;87.10;;;49.05;;
26157;SDS011;67284;44.782;10.282;2023-02-13T21:39:09;87.32;;;48.30;;
26157;SDS011;67284;44.782;10.282;2023-02-13T21:44:02;91.10;;;50.58;;
26157;SDS011;67284;44.782;10.282;2023-02-13T21:48:58;92.25;;;51.15;;
26157;SDS011;67284;44.782;10.282;2023-02-13T21:53:52;90.25;;;50.17;;
26157;SDS011;67284;44.782;10.282;2023-02-13T21:58:45;90.47;;;47.55;;
26157;SDS011;67284;44.782;10.282;2023-02-13T22:03:37;88.35;;;48.50;;
26157;SDS011;67284;44.782;10.282;2023-02-13T22:08:29;81.35;;;44.78;;
26157;SDS011;67284;44.782;10.282;2023-02-13T22:13:22;82.47;;;45.22;;
26157;SDS011;67284;44.782;10.282;2023-02-13T22:18:14;80.47;;;44.38;;
26157;SDS011;67284;44.782;10.282;2023-02-13T22:23:06;73.63;;;42.08;;
26157;SDS011;67284;44.782;10.282;2023-02-13T22:27:57;77.75;;;42.28;;
26157;SDS011;67284;44.782;10.282;2023-02-13T22:32:49;69.95;;;40.10;;
26157;SDS011;67284;44.782;10.282;2023-02-13T22:37:41;73.20;;;40.40;;
26157;SDS011;67284;44.782;10.282;2023-02-13T22:42:33;75.97;;;42.17;;
26157;SDS011;67284;44.782;10.282;2023-02-13T22:47:24;69.57;;;39.97;;
26157;SDS011;67284;44.782;10.282;2023-02-13T22:52:16;73.97;;;39.88;;
26157;SDS011;67284;44.782;10.282;2023-02-13T22:57:08;74.15;;;41.22;;
26157;SDS011;67284;44.782;10.282;2023-02-13T23:02:00;70.28;;;40.08;;
26157;SDS011;67284;44.782;10.282;2023-02-13T23:06:53;73.13;;;41.17;;
26157;SDS011;67284;44.782;10.282;2023-02-13T23:11:45;79.53;;;42.17;;
26157;SDS011;67284;44.782;10.282;2023-02-13T23:16:58;84.30;;;45.38;;
26157;SDS011;67284;44.782;10.282;2023-02-13T23:22:09;80.13;;;44.67;;
26157;SDS011;67284;44.782;10.282;2023-02-13T23:27:03;76.72;;;42.85;;
26157;SDS011;67284;44.782;10.282;2023-02-13T23:31:55;83.18;;;43.15;;
26157;SDS011;67284;44.782;10.282;2023-02-13T23:36:47;81.32;;;43.72;;
26157;SDS011;67284;44.782;10.282;2023-02-13T23:41:39;79.15;;;40.85;;
26157;SDS011;67284;44.782;10.282;2023-02-13T23:46:31;76.13;;;41.22;;
26157;SDS011;67284;44.782;10.282;2023-02-13T23:51:23;77.05;;;39.33;;
26157;SDS011;67284;44.782;10.282;2023-02-13T23:56:16;74.95;;;42.60;;
